createdAt,value
2022-09-10T00:00:05.735Z,1.17
2022-09-10T00:02:34.017Z,0.80
2022-09-10T00:05:02.298Z,1.20
2022-09-10T00:07:31.865Z,1.20
2022-09-10T00:10:00.112Z,1.00
2022-09-10T00:12:28.465Z,0.88
2022-09-10T00:14:56.666Z,1.00
2022-09-10T00:17:24.939Z,1.10
2022-09-10T00:19:54.946Z,1.10
2022-09-10T00:22:23.188Z,1.12
2022-09-10T00:24:52.918Z,1.00
2022-09-10T00:27:21.102Z,1.25
2022-09-10T00:29:51.641Z,0.82
2022-09-10T00:32:20.999Z,0.90
2022-09-10T00:34:49.278Z,0.90
2022-09-10T00:37:18.651Z,0.78
2022-09-10T00:39:47.123Z,0.93
2022-09-10T00:42:16.970Z,0.80
2022-09-10T00:44:46.718Z,0.80
2022-09-10T00:47:22.351Z,0.80
2022-09-10T00:49:54.574Z,0.78
2022-09-10T00:52:23.019Z,0.90
2022-09-10T00:54:51.599Z,0.93
2022-09-10T00:57:21.338Z,0.80
2022-09-10T00:59:51.084Z,0.78
2022-09-10T01:02:19.388Z,0.90
2022-09-10T01:04:47.732Z,1.00
2022-09-10T01:07:16.308Z,0.88
2022-09-10T01:09:44.596Z,0.95
2022-09-10T01:12:16.695Z,1.10
2022-09-10T01:15:05.150Z,0.90
2022-09-10T01:17:40.706Z,0.60
2022-09-10T01:20:26.893Z,0.90
2022-09-10T01:23:08.718Z,1.00
2022-09-10T01:25:58.025Z,1.02
2022-09-10T01:28:27.764Z,0.90
2022-09-10T01:30:57.451Z,1.00
2022-09-10T01:33:38.990Z,0.72
2022-09-10T01:36:09.524Z,0.70
2022-09-10T01:38:44.460Z,1.20
2022-09-10T01:41:13.958Z,0.98
2022-09-10T01:43:42.221Z,0.80
2022-09-10T01:46:29.701Z,0.93
2022-09-10T01:49:00.394Z,0.90
2022-09-10T01:51:30.157Z,0.70
2022-09-10T01:54:02.810Z,1.10
2022-09-10T01:56:35.575Z,1.05
2022-09-10T02:01:36.417Z,1.00
2022-09-10T02:04:06.234Z,0.95
2022-09-10T02:06:36.150Z,1.00
2022-09-10T02:09:04.932Z,0.93
2022-09-10T02:11:34.665Z,1.02
2022-09-10T02:14:02.901Z,1.22
2022-09-10T02:16:32.674Z,1.10
2022-09-10T02:19:01.504Z,1.07
2022-09-10T02:21:29.708Z,1.10
2022-09-10T02:23:59.778Z,0.82
2022-09-10T02:26:28.003Z,0.82
2022-09-10T02:28:56.275Z,1.07
2022-09-10T02:31:25.556Z,1.20
2022-09-10T02:33:54.503Z,1.27
2022-09-10T02:36:24.401Z,1.30
2022-09-10T02:38:53.272Z,1.10
2022-09-10T02:41:23.115Z,1.30
2022-09-10T02:43:51.721Z,1.35
2022-09-10T02:46:20.096Z,1.35
2022-09-10T02:48:48.551Z,1.30
2022-09-10T02:51:16.741Z,1.35
2022-09-10T02:53:45.007Z,1.10
2022-09-10T02:56:13.552Z,1.27
2022-09-10T02:58:41.840Z,1.30
2022-09-10T03:01:11.855Z,1.25
2022-09-10T03:03:40.102Z,1.20
2022-09-10T03:06:08.688Z,1.40
2022-09-10T03:08:37.024Z,1.50
2022-09-10T03:11:05.680Z,1.27
2022-09-10T03:13:33.923Z,1.60
2022-09-10T03:16:05.152Z,1.37
2022-09-10T03:18:33.391Z,1.80
2022-09-10T03:21:18.230Z,1.47
2022-09-10T03:23:48.358Z,1.95
2022-09-10T03:26:18.178Z,1.67
2022-09-10T03:28:46.750Z,1.40
2022-09-10T03:31:15.297Z,1.50
2022-09-10T03:33:43.586Z,1.50
2022-09-10T03:36:13.125Z,1.80
2022-09-10T03:38:41.710Z,1.45
2022-09-10T03:41:10.054Z,1.50
2022-09-10T03:43:38.250Z,1.82
2022-09-10T03:46:07.075Z,1.92
2022-09-10T03:48:35.401Z,1.47
2022-09-10T03:51:03.645Z,1.47
2022-09-10T03:53:31.863Z,2.00
2022-09-10T03:56:00.066Z,1.50
2022-09-10T03:58:28.529Z,1.50
2022-09-10T04:00:56.793Z,1.75
2022-09-10T04:03:25.780Z,2.00
2022-09-10T04:05:54.073Z,1.90
2022-09-10T04:08:23.014Z,1.55
2022-09-10T04:10:51.230Z,1.50
2022-09-10T04:13:19.428Z,1.62
2022-09-10T04:15:47.633Z,1.45
2022-09-10T04:18:15.767Z,1.80
2022-09-10T04:20:45.420Z,1.72
2022-09-10T04:23:13.722Z,1.72
2022-09-10T04:25:41.930Z,1.70
2022-09-10T04:28:11.232Z,1.80
2022-09-10T04:30:40.055Z,1.77
2022-09-10T04:33:08.277Z,1.70
2022-09-10T04:35:36.468Z,1.70
2022-09-10T04:38:04.677Z,1.80
2022-09-10T04:40:33.864Z,1.42
2022-09-10T04:43:02.323Z,1.35
2022-09-10T04:45:32.133Z,1.95
2022-09-10T04:48:04.818Z,1.40
2022-09-10T04:50:30.260Z,1.77
2022-09-10T04:52:58.842Z,1.70
2022-09-10T04:55:27.590Z,1.55
2022-09-10T04:57:55.806Z,1.60
2022-09-10T05:00:24.900Z,1.87
2022-09-10T05:02:53.129Z,1.60
2022-09-10T05:05:21.330Z,1.50
2022-09-10T05:07:49.558Z,1.32
2022-09-10T05:10:18.033Z,1.70
2022-09-10T05:12:46.322Z,1.70
2022-09-10T05:15:14.727Z,1.50
2022-09-10T05:17:43.937Z,1.77
2022-09-10T05:20:12.325Z,1.60
2022-09-10T05:22:42.019Z,1.40
2022-09-10T05:25:10.263Z,1.60
2022-09-10T05:27:38.414Z,1.70
2022-09-10T05:30:07.053Z,1.47
2022-09-10T05:32:35.418Z,1.95
2022-09-10T05:35:05.182Z,2.10
2022-09-10T05:37:33.409Z,1.50
2022-09-10T05:40:02.994Z,1.70
2022-09-10T05:42:31.194Z,1.75
2022-09-10T05:44:59.498Z,1.90
2022-09-10T05:47:28.068Z,1.80
2022-09-10T05:49:56.344Z,1.85
2022-09-10T05:52:24.584Z,1.75
2022-09-10T05:54:54.347Z,1.87
2022-09-10T05:57:22.559Z,1.80
2022-09-10T05:59:50.756Z,2.40
2022-09-10T06:02:23.707Z,1.45
2022-09-10T06:04:49.195Z,1.65
2022-09-10T06:07:17.416Z,1.52
2022-09-10T06:09:45.634Z,1.95
2022-09-10T06:12:13.850Z,1.50
2022-09-10T06:14:42.053Z,2.08
2022-09-10T06:17:10.246Z,1.87
2022-09-10T06:19:39.717Z,1.52
2022-09-10T06:22:09.568Z,1.70
2022-09-10T06:24:38.224Z,1.70
2022-09-10T06:27:06.768Z,1.60
2022-09-10T06:29:36.469Z,1.85
2022-09-10T06:32:04.877Z,1.75
2022-09-10T06:34:33.181Z,1.50
2022-09-10T06:37:02.386Z,1.92
2022-09-10T06:39:30.605Z,1.65
2022-09-10T06:41:58.826Z,1.77
2022-09-10T06:44:28.662Z,2.10
2022-09-10T06:47:39.026Z,2.05
2022-09-10T06:49:28.354Z,1.70
2022-09-10T06:51:56.908Z,1.80
2022-09-10T06:54:26.346Z,2.12
2022-09-10T06:56:54.675Z,1.90
2022-09-10T06:59:22.903Z,2.10
2022-09-10T07:01:51.199Z,2.25
2022-09-10T07:04:19.825Z,2.15
2022-09-10T07:06:48.225Z,1.85
2022-09-10T07:09:16.504Z,2.15
2022-09-10T07:11:44.705Z,1.90
2022-09-10T07:14:13.661Z,2.02
2022-09-10T07:16:43.987Z,2.40
2022-09-10T07:19:14.446Z,2.45
2022-09-10T07:21:42.646Z,2.30
2022-09-10T07:24:12.276Z,2.30
2022-09-10T07:26:40.961Z,2.40
2022-09-10T07:29:09.627Z,2.45
2022-09-10T07:31:38.109Z,2.12
2022-09-10T07:34:06.484Z,2.40
2022-09-10T07:36:34.814Z,2.30
2022-09-10T07:39:03.943Z,2.37
2022-09-10T07:41:34.994Z,2.25
2022-09-10T07:44:03.807Z,2.42
2022-09-10T07:46:35.059Z,2.25
2022-09-10T07:49:05.260Z,1.98
2022-09-10T07:51:34.786Z,2.17
2022-09-10T07:54:03.257Z,2.27
2022-09-10T07:56:33.503Z,2.08
2022-09-10T07:59:04.872Z,2.37
2022-09-10T08:01:33.479Z,2.30
2022-09-10T08:04:01.802Z,3.37
2022-09-10T08:06:31.939Z,2.52
2022-09-10T08:09:00.625Z,2.70
2022-09-10T08:11:29.007Z,2.45
2022-09-10T08:13:57.201Z,2.60
2022-09-10T08:16:26.732Z,3.05
2022-09-10T08:19:00.011Z,2.60
2022-09-10T08:21:30.073Z,2.67
2022-09-10T08:23:58.338Z,2.47
2022-09-10T08:26:27.195Z,2.10
2022-09-10T08:28:58.060Z,2.60
2022-09-10T08:31:26.426Z,3.08
2022-09-10T08:33:55.517Z,2.72
2022-09-10T08:36:24.384Z,2.47
2022-09-10T08:38:56.968Z,2.40
2022-09-10T08:41:35.599Z,2.47
2022-09-10T08:44:12.469Z,2.50
2022-09-10T08:46:51.196Z,2.70
2022-09-10T08:49:32.987Z,2.70
2022-09-10T08:52:02.769Z,3.45
2022-09-10T08:54:38.399Z,2.90
2022-09-10T08:57:08.535Z,3.10
2022-09-10T08:59:39.867Z,2.87
2022-09-10T09:02:22.442Z,3.08
2022-09-10T09:04:49.976Z,2.85
2022-09-10T09:07:19.981Z,3.20
2022-09-10T09:09:52.242Z,3.35
2022-09-10T09:12:30.950Z,2.83
2022-09-10T09:15:08.990Z,3.37
2022-09-10T09:17:54.757Z,3.30
2022-09-10T09:20:39.336Z,3.52
2022-09-10T09:23:09.141Z,3.40
2022-09-10T09:25:47.630Z,3.50
2022-09-10T09:28:17.653Z,3.58
2022-09-10T09:30:47.778Z,3.33
2022-09-10T09:33:17.414Z,3.55
2022-09-10T09:35:47.154Z,3.60
2022-09-10T09:38:23.605Z,4.12
2022-09-10T09:40:56.273Z,3.80
2022-09-10T09:43:26.337Z,3.85
2022-09-10T09:45:54.568Z,4.67
2022-09-10T09:48:24.371Z,4.70
2022-09-10T09:50:54.425Z,4.37
2022-09-10T09:53:25.346Z,4.42
2022-09-10T09:55:57.805Z,4.15
2022-09-10T09:58:30.556Z,3.80
2022-09-10T10:03:28.922Z,4.22
2022-09-10T10:06:05.810Z,4.00
2022-09-10T10:08:35.770Z,3.80
2022-09-10T10:11:05.053Z,4.05
2022-09-10T10:13:37.823Z,3.80
2022-09-10T10:18:34.175Z,4.42
2022-09-10T10:21:12.928Z,3.70
2022-09-10T10:23:41.372Z,4.17
2022-09-10T10:26:24.958Z,3.77
2022-09-10T10:28:54.842Z,4.22
2022-09-10T10:31:23.504Z,4.05
2022-09-10T10:33:53.247Z,4.12
2022-09-10T10:36:33.952Z,4.05
2022-09-10T10:39:04.006Z,4.30
2022-09-10T10:41:50.695Z,3.83
2022-09-10T10:44:36.751Z,4.30
2022-09-10T10:47:18.511Z,4.15
2022-09-10T10:50:06.514Z,4.05
2022-09-10T10:52:48.321Z,3.92
2022-09-10T10:55:18.398Z,4.03
2022-09-10T10:57:51.145Z,4.28
2022-09-10T11:02:54.756Z,4.50
2022-09-10T11:05:27.364Z,4.45
2022-09-10T11:07:58.966Z,4.20
2022-09-10T11:10:34.479Z,4.12
2022-09-10T11:13:10.049Z,4.70
2022-09-10T11:15:48.484Z,4.55
2022-09-10T11:18:34.739Z,4.37
2022-09-10T11:21:04.470Z,4.78
2022-09-10T11:23:34.694Z,4.90
2022-09-10T11:26:20.812Z,5.03
2022-09-10T11:29:05.572Z,5.55
2022-09-10T11:31:35.359Z,5.83
2022-09-10T11:34:05.113Z,5.53
2022-09-10T11:36:34.852Z,5.47
2022-09-10T11:39:11.035Z,5.22
2022-09-10T11:41:42.271Z,5.85
2022-09-10T11:44:15.351Z,6.05
2022-09-10T11:46:45.096Z,6.50
2022-09-10T11:49:17.149Z,5.03
2022-09-10T11:51:45.748Z,5.30
2022-09-10T11:54:16.049Z,5.72
2022-09-10T11:57:00.966Z,4.90
2022-09-10T11:59:30.789Z,4.80
2022-09-10T12:02:02.397Z,4.72
2022-09-10T12:04:32.152Z,5.70
2022-09-10T12:07:11.368Z,5.97
2022-09-10T12:09:41.120Z,5.87
2022-09-10T12:12:13.858Z,5.78
2022-09-10T12:17:27.837Z,5.67
2022-09-10T12:19:59.595Z,5.50
2022-09-10T12:22:33.790Z,5.62
2022-09-10T12:25:20.668Z,5.10
2022-09-10T12:27:53.021Z,6.08
2022-09-10T12:30:33.269Z,6.10
2022-09-10T12:33:15.441Z,6.65
2022-09-10T12:35:45.226Z,6.00
2022-09-10T12:38:31.451Z,5.75
2022-09-10T12:41:02.881Z,5.53
2022-09-10T12:43:42.118Z,4.97
2022-09-10T12:46:12.552Z,5.72
2022-09-10T12:48:44.395Z,5.33
2022-09-10T12:51:20.177Z,5.37
2022-09-10T12:53:54.803Z,6.22
2022-09-10T12:56:41.335Z,5.62
2022-09-10T12:59:11.174Z,5.50
2022-09-10T13:01:41.275Z,5.60
2022-09-10T13:04:29.722Z,5.97
2022-09-10T13:07:02.136Z,6.22
2022-09-10T13:09:33.754Z,5.45
2022-09-10T13:12:06.858Z,4.95
2022-09-10T13:14:36.713Z,5.80
2022-09-10T13:17:06.511Z,5.35
2022-09-10T13:19:36.257Z,5.60
2022-09-10T13:22:06.032Z,4.92
2022-09-10T13:24:38.970Z,5.08
2022-09-10T13:27:14.738Z,5.12
2022-09-10T13:29:47.154Z,4.80
2022-09-10T13:32:20.210Z,5.17
2022-09-10T13:35:03.711Z,5.50
2022-09-10T13:37:39.439Z,5.60
2022-09-10T13:40:24.335Z,5.20
2022-09-10T13:43:01.551Z,5.22
2022-09-10T13:45:31.457Z,4.87
2022-09-10T13:48:01.771Z,5.12
2022-09-10T13:50:38.824Z,5.00
2022-09-10T13:53:08.901Z,5.20
2022-09-10T13:55:38.881Z,5.60
2022-09-10T13:58:09.192Z,5.28
2022-09-10T14:00:40.034Z,5.00
2022-09-10T14:03:15.763Z,5.42
2022-09-10T14:05:46.689Z,4.83
2022-09-10T14:08:17.607Z,5.20
2022-09-10T14:10:53.476Z,4.70
2022-09-10T14:13:23.710Z,5.55
2022-09-10T14:15:54.207Z,5.10
2022-09-10T14:18:24.119Z,5.05
2022-09-10T14:20:53.649Z,5.17
2022-09-10T14:23:22.076Z,5.97
2022-09-10T14:25:51.822Z,5.30
2022-09-10T14:28:21.752Z,5.10
2022-09-10T14:30:52.401Z,5.65
2022-09-10T14:33:34.041Z,5.33
2022-09-10T14:36:16.247Z,5.53
2022-09-10T14:38:45.663Z,4.67
2022-09-10T14:41:21.589Z,4.85
2022-09-10T14:43:50.459Z,4.90
2022-09-10T14:46:37.424Z,5.08
2022-09-10T14:49:10.882Z,4.78
2022-09-10T14:51:39.508Z,5.42
2022-09-10T14:54:08.707Z,4.85
2022-09-10T14:56:38.138Z,4.40
2022-09-10T14:59:07.955Z,4.62
2022-09-10T15:01:36.221Z,4.45
2022-09-10T15:04:06.345Z,3.90
2022-09-10T15:06:34.663Z,3.20
2022-09-10T15:09:03.173Z,3.60
2022-09-10T15:11:31.530Z,3.27
2022-09-10T15:14:00.674Z,3.33
2022-09-10T15:16:29.372Z,3.00
2022-09-10T15:18:58.508Z,2.67
2022-09-10T15:21:27.389Z,2.98
2022-09-10T15:23:56.107Z,3.55
2022-09-10T15:26:25.379Z,3.40
2022-09-10T15:28:55.377Z,3.40
2022-09-10T15:31:24.170Z,3.52
2022-09-10T15:33:53.180Z,3.85
2022-09-10T15:36:25.649Z,4.08
2022-09-10T15:38:53.871Z,4.22
2022-09-10T15:41:23.478Z,5.10
2022-09-10T15:43:52.528Z,4.28
2022-09-10T15:46:22.701Z,4.60
2022-09-10T15:48:51.867Z,4.90
2022-09-10T15:51:21.786Z,5.12
2022-09-10T15:53:51.663Z,5.03
2022-09-10T15:56:20.740Z,4.85
2022-09-10T15:58:55.391Z,5.45
2022-09-10T16:01:24.896Z,5.22
2022-09-10T16:03:56.370Z,4.67
2022-09-10T16:06:27.111Z,4.72
2022-09-10T16:08:56.986Z,4.95
2022-09-10T16:11:25.776Z,4.67
2022-09-10T16:13:53.974Z,5.37
2022-09-10T16:16:22.755Z,5.58
2022-09-10T16:18:52.542Z,5.30
2022-09-10T16:21:24.392Z,5.15
2022-09-10T16:23:53.477Z,5.42
2022-09-10T16:26:22.971Z,6.05
2022-09-10T16:28:52.712Z,5.55
2022-09-10T16:31:25.366Z,5.65
2022-09-10T16:33:55.098Z,5.80
2022-09-10T16:36:23.843Z,5.78
2022-09-10T16:38:56.645Z,5.78
2022-09-10T16:43:52.922Z,5.50
2022-09-10T16:46:21.257Z,5.80
2022-09-10T16:48:51.527Z,6.20
2022-09-10T16:51:20.468Z,6.55
2022-09-10T16:53:50.229Z,5.42
2022-09-10T16:56:18.599Z,6.08
2022-09-10T16:58:47.947Z,6.28
2022-09-10T17:01:16.404Z,6.55
2022-09-10T17:03:45.969Z,6.85
2022-09-10T17:06:15.258Z,6.42
2022-09-10T17:08:44.939Z,6.08
2022-09-10T17:11:14.304Z,5.83
2022-09-10T17:13:42.588Z,6.95
2022-09-10T17:16:18.145Z,6.58
2022-09-10T17:18:46.319Z,6.10
2022-09-10T17:21:14.782Z,6.33
2022-09-10T17:23:43.479Z,7.58
2022-09-10T17:26:11.684Z,6.70
2022-09-10T17:28:40.327Z,7.03
2022-09-10T17:31:08.648Z,7.28
2022-09-10T17:33:36.909Z,7.28
2022-09-10T17:36:05.185Z,6.90
2022-09-10T17:38:34.687Z,7.62
2022-09-10T17:41:04.665Z,7.95
2022-09-10T17:43:36.684Z,7.17
2022-09-10T17:46:05.488Z,7.43
2022-09-10T17:48:35.833Z,7.62
2022-09-10T17:51:05.549Z,7.35
2022-09-10T17:53:34.623Z,7.42
2022-09-10T17:56:03.794Z,7.78
2022-09-10T17:58:33.125Z,7.55
2022-09-10T18:01:02.626Z,7.92
2022-09-10T18:03:31.535Z,7.75
2022-09-10T18:06:06.153Z,8.03
2022-09-10T18:08:34.633Z,7.85
2022-09-10T18:11:10.483Z,7.97
2022-09-10T18:13:38.868Z,6.85
2022-09-10T18:16:09.011Z,8.03
2022-09-10T18:18:37.946Z,7.80
2022-09-10T18:21:12.978Z,7.80
2022-09-10T18:23:43.129Z,7.53
2022-09-10T18:26:12.326Z,8.10
2022-09-10T18:28:40.971Z,8.68
2022-09-10T18:31:09.648Z,7.70
2022-09-10T18:33:38.978Z,7.50
2022-09-10T18:36:12.008Z,8.33
2022-09-10T18:38:40.979Z,8.13
2022-09-10T18:41:18.850Z,7.70
2022-09-10T18:43:47.493Z,8.00
2022-09-10T18:46:16.263Z,8.30
2022-09-10T18:48:44.575Z,7.78
2022-09-10T18:51:14.445Z,7.72
2022-09-10T18:53:44.983Z,8.25
2022-09-10T18:56:14.889Z,8.55
2022-09-10T18:58:43.288Z,7.78
2022-09-10T19:01:12.669Z,7.40
2022-09-10T19:03:45.002Z,7.92
2022-09-10T19:06:14.965Z,7.87
2022-09-10T19:08:50.040Z,7.85
2022-09-10T19:11:18.764Z,7.58
2022-09-10T19:13:51.069Z,7.53
2022-09-10T19:16:19.678Z,8.35
2022-09-10T19:18:52.362Z,7.67
2022-09-10T19:21:21.232Z,8.18
2022-09-10T19:23:50.798Z,8.30
2022-09-10T19:26:20.211Z,8.10
2022-09-10T19:28:48.444Z,7.60
2022-09-10T19:31:19.334Z,9.25
2022-09-10T19:33:48.332Z,8.63
2022-09-10T19:36:18.969Z,7.28
2022-09-10T19:38:47.303Z,8.48
2022-09-10T19:41:19.179Z,8.05
2022-09-10T19:43:48.495Z,7.22
2022-09-10T19:46:17.750Z,8.28
2022-09-10T19:48:50.924Z,9.40
2022-09-10T19:51:20.122Z,8.55
2022-09-10T19:53:49.260Z,7.97
2022-09-10T19:56:20.974Z,8.28
2022-09-10T19:58:50.841Z,8.28
2022-09-10T20:01:23.484Z,8.13
2022-09-10T20:03:53.180Z,8.85
2022-09-10T20:06:23.032Z,9.00
2022-09-10T20:08:51.253Z,8.55
2022-09-10T20:11:21.027Z,8.43
2022-09-10T20:13:49.841Z,8.48
2022-09-10T20:16:18.369Z,8.18
2022-09-10T20:18:46.551Z,8.73
2022-09-10T20:21:19.730Z,7.78
2022-09-10T20:23:50.697Z,8.60
2022-09-10T20:26:20.744Z,8.53
2022-09-10T20:28:53.841Z,7.62
2022-09-10T20:31:22.850Z,9.00
2022-09-10T20:33:52.564Z,8.45
2022-09-10T20:36:21.662Z,8.05
2022-09-10T20:38:50.325Z,8.45
2022-09-10T20:41:18.628Z,7.92
2022-09-10T20:43:51.536Z,8.28
2022-09-10T20:46:22.337Z,8.25
2022-09-10T20:48:51.342Z,8.88
2022-09-10T20:51:21.767Z,8.35
2022-09-10T20:53:50.048Z,8.70
2022-09-10T20:56:19.542Z,9.03
2022-09-10T20:58:47.826Z,8.68
2022-09-10T21:01:23.370Z,8.33
2022-09-10T21:03:53.396Z,8.00
2022-09-10T21:06:23.409Z,8.80
2022-09-10T21:08:51.686Z,9.53
2022-09-10T21:11:20.686Z,9.13
2022-09-10T21:13:49.724Z,9.70
2022-09-10T21:16:18.908Z,9.85
2022-09-10T21:18:54.646Z,11.18
2022-09-10T21:21:22.492Z,11.15
2022-09-10T21:23:51.565Z,10.30
2022-09-10T21:26:23.290Z,11.15
2022-09-10T21:28:52.993Z,11.28
2022-09-10T21:31:21.264Z,14.78
2022-09-10T21:33:49.977Z,11.53
2022-09-10T21:36:19.165Z,11.20
2022-09-10T21:38:48.919Z,10.35
2022-09-10T21:41:18.710Z,10.50
2022-09-10T21:43:47.729Z,10.65
2022-09-10T21:46:16.061Z,10.58
2022-09-10T21:48:44.951Z,10.23
2022-09-10T21:51:17.572Z,10.28
2022-09-10T21:53:45.973Z,9.93
2022-09-10T21:56:15.466Z,10.23
2022-09-10T21:58:44.873Z,10.35
2022-09-10T22:01:13.985Z,10.60
2022-09-10T22:03:42.342Z,10.48
2022-09-10T22:06:11.736Z,10.68
2022-09-10T22:08:41.605Z,9.73
2022-09-10T22:11:12.971Z,11.03
2022-09-10T22:13:42.941Z,10.78
2022-09-10T22:16:14.955Z,10.75
2022-09-10T22:18:43.567Z,10.93
2022-09-10T22:21:11.762Z,9.85
2022-09-10T22:23:40.248Z,11.78
2022-09-10T22:26:12.914Z,11.20
2022-09-10T22:28:41.409Z,10.65
2022-09-10T22:31:11.256Z,11.10
2022-09-10T22:33:40.464Z,10.88
2022-09-10T22:36:13.323Z,10.48
2022-09-10T22:41:09.991Z,10.43
2022-09-10T22:43:38.638Z,10.90
2022-09-10T22:46:08.035Z,10.90
2022-09-10T22:48:40.551Z,11.85
2022-09-10T22:51:11.102Z,11.10
2022-09-10T22:53:40.033Z,10.23
2022-09-10T22:56:09.006Z,11.50
2022-09-10T22:58:37.408Z,10.82
2022-09-10T23:01:13.549Z,10.68
2022-09-10T23:03:42.239Z,10.58
2022-09-10T23:06:12.645Z,11.48
2022-09-10T23:08:41.294Z,10.95
2022-09-10T23:11:20.704Z,9.95
2022-09-10T23:13:53.732Z,11.03
2022-09-10T23:16:23.530Z,11.08
2022-09-10T23:18:53.299Z,10.70
2022-09-10T23:21:23.650Z,10.98
2022-09-10T23:23:52.886Z,10.38
2022-09-10T23:26:21.637Z,11.90
2022-09-10T23:28:50.312Z,11.30
2022-09-10T23:31:22.748Z,11.00
2022-09-10T23:33:55.081Z,12.20
2022-09-10T23:36:23.577Z,11.28
2022-09-10T23:38:51.790Z,11.40
2022-09-10T23:41:20.282Z,12.07
2022-09-10T23:43:48.503Z,12.20
2022-09-10T23:46:16.746Z,10.93
2022-09-10T23:48:45.679Z,11.10
2022-09-10T23:51:15.349Z,10.82
2022-09-10T23:53:46.934Z,11.83
2022-09-10T23:56:16.761Z,11.18
2022-09-10T23:58:45.330Z,11.88
